Orbital elements of COSMOS 1275 DEB
| Launched | 3 June 1981 |
| Flight ended | – |
| Launch site | Plesetsk Missile and Space Complex, Russia |
| Owner | Commonwealth of Independent States (former USSR) |
| NORAD ID | 13481 |
| Date fetched |
Epoch osculation |
Inc. [°] |
Ecc. | RA asc node [hr] |
Arg Peri. [°] |
Mean anom [°] |
Mean motion [rev/day] |
Abs. mag |
| Date fetched |
Epoch osculation |
Inc. [°] |
Ecc. | RA asc node [hr] |
Arg Peri. [°] |
Mean anom [°] |
Mean motion [rev/day] |
Abs. mag |
| 2026 May 08 17:57 | 2026 May 05 05:43:13 | 82.9535 | 0.00172 | 2.7171 | 115.4626 | 244.8402 | 15.45176 | – |
| 2026 May 07 17:58 | 2026 May 05 05:43:13 | 82.9535 | 0.00172 | 2.7171 | 115.4626 | 244.8402 | 15.45176 | – |
| 2026 May 06 17:57 | 2026 May 05 05:43:13 | 82.9535 | 0.00172 | 2.7171 | 115.4626 | 244.8402 | 15.45176 | – |
| 2026 May 05 17:57 | 2026 May 05 05:43:13 | 82.9535 | 0.00172 | 2.7171 | 115.4626 | 244.8402 | 15.45176 | – |
| 2026 May 04 17:57 | 2026 Apr 30 05:51:29 | 82.9556 | 0.00179 | 3.0390 | 114.2307 | 244.8402 | 15.45176 | – |
| 2026 May 03 17:57 | 2026 Apr 30 05:51:29 | 82.9556 | 0.00179 | 3.0390 | 114.2307 | 244.8402 | 15.45176 | – |
| 2026 May 02 17:57 | 2026 Apr 30 05:51:29 | 82.9556 | 0.00179 | 3.0390 | 114.2307 | 244.8402 | 15.45176 | – |
| 2026 May 01 17:56 | 2026 Apr 30 05:51:29 | 82.9556 | 0.00179 | 3.0390 | 114.2307 | 244.8402 | 15.45176 | – |
| 2026 Apr 30 17:56 | 2026 Apr 30 05:51:29 | 82.9556 | 0.00179 | 3.0390 | 114.2307 | 244.8402 | 15.45176 | – |
| 2026 Apr 29 17:57 | 2026 Apr 24 06:14:14 | 82.9568 | 0.00181 | 3.4222 | 115.0711 | 244.8402 | 15.45176 | – |
| 2026 Apr 28 17:56 | 2026 Apr 24 06:14:14 | 82.9568 | 0.00181 | 3.4222 | 115.0711 | 244.8402 | 15.45176 | – |
| 2026 Apr 27 17:58 | 2026 Apr 24 06:14:14 | 82.9568 | 0.00181 | 3.4222 | 115.0711 | 244.8402 | 15.45176 | – |
| 2026 Apr 26 17:58 | 2026 Apr 24 06:14:14 | 82.9568 | 0.00181 | 3.4222 | 115.0711 | 244.8402 | 15.45176 | – |
| 2026 Apr 25 17:58 | 2026 Apr 24 06:14:14 | 82.9568 | 0.00181 | 3.4222 | 115.0711 | 244.8402 | 15.45176 | – |
| 2026 Apr 24 17:59 | 2026 Apr 24 06:14:14 | 82.9568 | 0.00181 | 3.4222 | 115.0711 | 244.8402 | 15.45176 | – |
| 2026 Apr 23 17:57 | 2026 Apr 19 07:20:33 | 82.9597 | 0.00175 | 3.7378 | 121.6762 | 244.8402 | 15.45176 | – |
| 2026 Apr 22 17:57 | 2026 Apr 19 07:20:33 | 82.9597 | 0.00175 | 3.7378 | 121.6762 | 244.8402 | 15.45176 | – |
| 2026 Apr 21 17:57 | 2026 Apr 19 07:20:33 | 82.9597 | 0.00175 | 3.7378 | 121.6762 | 244.8402 | 15.45176 | – |
| 2026 Apr 20 17:57 | 2026 Apr 19 07:20:33 | 82.9597 | 0.00175 | 3.7378 | 121.6762 | 244.8402 | 15.45176 | – |
| 2026 Apr 19 17:58 | 2026 Apr 19 07:20:33 | 82.9597 | 0.00175 | 3.7378 | 121.6762 | 244.8402 | 15.45176 | – |
| 2026 Apr 18 17:56 | 2026 Apr 12 07:41:24 | 82.9588 | 0.00160 | 4.1812 | 134.3404 | 244.8402 | 15.45176 | – |
| 2026 Apr 16 17:57 | 2026 Apr 12 07:41:24 | 82.9588 | 0.00160 | 4.1812 | 134.3404 | 244.8402 | 15.45176 | – |
| 2026 Apr 14 17:57 | 2026 Apr 12 07:41:24 | 82.9588 | 0.00160 | 4.1812 | 134.3404 | 244.8402 | 15.45176 | – |
| 2026 Apr 13 17:57 | 2026 Apr 12 07:41:24 | 82.9588 | 0.00160 | 4.1812 | 134.3404 | 244.8402 | 15.45176 | – |
| 2026 Apr 12 17:57 | 2026 Apr 08 07:59:52 | 82.9589 | 0.00145 | 4.4335 | 140.5158 | 244.8402 | 15.45176 | – |
| 2026 Apr 11 17:57 | 2026 Apr 08 07:59:52 | 82.9589 | 0.00145 | 4.4335 | 140.5158 | 244.8402 | 15.45176 | – |